sensor_id;sensor_type;location;lat;lon;timestamp;P1;durP1;ratioP1;P2;durP2;ratioP2
56381;SDS011;50261;51.150;4.470;2022-11-27T00:00:35;13.13;;;4.15;;
56381;SDS011;50261;51.150;4.470;2022-11-27T00:03:01;11.55;;;4.15;;
56381;SDS011;50261;51.150;4.470;2022-11-27T00:05:27;14.00;;;4.50;;
56381;SDS011;50261;51.150;4.470;2022-11-27T00:07:52;14.27;;;4.30;;
56381;SDS011;50261;51.150;4.470;2022-11-27T00:10:18;16.73;;;4.15;;
56381;SDS011;50261;51.150;4.470;2022-11-27T00:12:44;11.02;;;4.72;;
56381;SDS011;50261;51.150;4.470;2022-11-27T00:15:09;11.50;;;4.15;;
56381;SDS011;50261;51.150;4.470;2022-11-27T00:17:35;13.25;;;4.15;;
56381;SDS011;50261;51.150;4.470;2022-11-27T00:20:01;13.43;;;4.57;;
56381;SDS011;50261;51.150;4.470;2022-11-27T00:22:27;14.55;;;4.50;;
56381;SDS011;50261;51.150;4.470;2022-11-27T00:24:52;12.98;;;4.45;;
56381;SDS011;50261;51.150;4.470;2022-11-27T00:27:18;18.27;;;4.20;;
56381;SDS011;50261;51.150;4.470;2022-11-27T00:29:43;18.75;;;4.65;;
56381;SDS011;50261;51.150;4.470;2022-11-27T00:32:09;12.57;;;3.92;;
56381;SDS011;50261;51.150;4.470;2022-11-27T00:34:35;17.73;;;4.40;;
56381;SDS011;50261;51.150;4.470;2022-11-27T00:37:01;10.55;;;4.25;;
56381;SDS011;50261;51.150;4.470;2022-11-27T00:39:26;15.60;;;4.40;;
56381;SDS011;50261;51.150;4.470;2022-11-27T00:41:52;11.82;;;3.90;;
56381;SDS011;50261;51.150;4.470;2022-11-27T00:44:18;10.45;;;3.90;;
56381;SDS011;50261;51.150;4.470;2022-11-27T00:46:44;11.55;;;3.90;;
56381;SDS011;50261;51.150;4.470;2022-11-27T00:49:10;11.95;;;3.83;;
56381;SDS011;50261;51.150;4.470;2022-11-27T00:51:36;9.10;;;3.97;;
56381;SDS011;50261;51.150;4.470;2022-11-27T00:54:02;12.93;;;3.88;;
56381;SDS011;50261;51.150;4.470;2022-11-27T00:56:29;14.88;;;3.45;;
56381;SDS011;50261;51.150;4.470;2022-11-27T00:58:55;12.80;;;3.95;;
56381;SDS011;50261;51.150;4.470;2022-11-27T01:01:22;13.13;;;3.90;;
56381;SDS011;50261;51.150;4.470;2022-11-27T01:03:48;11.43;;;3.85;;
56381;SDS011;50261;51.150;4.470;2022-11-27T01:06:14;18.08;;;4.13;;
56381;SDS011;50261;51.150;4.470;2022-11-27T01:08:41;17.00;;;3.60;;
56381;SDS011;50261;51.150;4.470;2022-11-27T01:11:11;11.20;;;3.60;;
56381;SDS011;50261;51.150;4.470;2022-11-27T01:13:37;12.38;;;4.30;;
56381;SDS011;50261;51.150;4.470;2022-11-27T01:16:04;11.43;;;4.05;;
56381;SDS011;50261;51.150;4.470;2022-11-27T01:18:30;10.20;;;3.38;;
56381;SDS011;50261;51.150;4.470;2022-11-27T01:20:56;11.60;;;4.15;;
56381;SDS011;50261;51.150;4.470;2022-11-27T01:23:22;14.18;;;3.67;;
56381;SDS011;50261;51.150;4.470;2022-11-27T01:25:48;14.90;;;3.70;;
56381;SDS011;50261;51.150;4.470;2022-11-27T01:28:14;14.27;;;3.63;;
56381;SDS011;50261;51.150;4.470;2022-11-27T01:30:40;11.40;;;3.38;;
56381;SDS011;50261;51.150;4.470;2022-11-27T01:33:06;8.65;;;3.08;;
56381;SDS011;50261;51.150;4.470;2022-11-27T01:35:31;8.57;;;2.83;;
56381;SDS011;50261;51.150;4.470;2022-11-27T01:37:57;14.35;;;3.40;;
56381;SDS011;50261;51.150;4.470;2022-11-27T01:40:23;8.27;;;2.70;;
56381;SDS011;50261;51.150;4.470;2022-11-27T01:42:49;9.00;;;3.30;;
56381;SDS011;50261;51.150;4.470;2022-11-27T01:45:15;10.15;;;2.60;;
56381;SDS011;50261;51.150;4.470;2022-11-27T01:47:48;13.02;;;3.00;;
56381;SDS011;50261;51.150;4.470;2022-11-27T01:50:16;11.80;;;3.30;;
56381;SDS011;50261;51.150;4.470;2022-11-27T01:52:45;6.90;;;2.45;;
56381;SDS011;50261;51.150;4.470;2022-11-27T01:57:48;10.27;;;2.90;;
56381;SDS011;50261;51.150;4.470;2022-11-27T02:00:16;11.85;;;3.15;;
56381;SDS011;50261;51.150;4.470;2022-11-27T02:02:42;10.88;;;2.88;;
56381;SDS011;50261;51.150;4.470;2022-11-27T02:05:09;11.57;;;3.10;;
56381;SDS011;50261;51.150;4.470;2022-11-27T02:07:35;8.20;;;3.63;;
56381;SDS011;50261;51.150;4.470;2022-11-27T02:10:00;10.32;;;2.80;;
56381;SDS011;50261;51.150;4.470;2022-11-27T02:13:01;11.50;;;3.22;;
56381;SDS011;50261;51.150;4.470;2022-11-27T02:16:02;10.07;;;3.10;;
56381;SDS011;50261;51.150;4.470;2022-11-27T02:18:19;7.07;;;3.03;;
56381;SDS011;50261;51.150;4.470;2022-11-27T02:26:16;6.05;;;2.55;;
56381;SDS011;50261;51.150;4.470;2022-11-27T02:36:59;10.07;;;2.90;;
56381;SDS011;50261;51.150;4.470;2022-11-27T02:39:27;11.23;;;2.70;;
56381;SDS011;50261;51.150;4.470;2022-11-27T02:42:01;8.73;;;3.00;;
56381;SDS011;50261;51.150;4.470;2022-11-27T02:44:30;7.20;;;2.80;;
56381;SDS011;50261;51.150;4.470;2022-11-27T02:46:57;7.60;;;2.92;;
56381;SDS011;50261;51.150;4.470;2022-11-27T02:49:23;6.80;;;2.35;;
56381;SDS011;50261;51.150;4.470;2022-11-27T02:51:51;10.05;;;2.85;;
56381;SDS011;50261;51.150;4.470;2022-11-27T02:54:19;9.43;;;2.88;;
56381;SDS011;50261;51.150;4.470;2022-11-27T02:56:46;5.95;;;2.53;;
56381;SDS011;50261;51.150;4.470;2022-11-27T02:59:12;9.10;;;2.58;;
56381;SDS011;50261;51.150;4.470;2022-11-27T03:01:43;8.15;;;2.58;;
56381;SDS011;50261;51.150;4.470;2022-11-27T03:04:11;7.03;;;2.13;;
56381;SDS011;50261;51.150;4.470;2022-11-27T03:06:43;8.27;;;2.63;;
56381;SDS011;50261;51.150;4.470;2022-11-27T03:09:17;10.35;;;2.38;;
56381;SDS011;50261;51.150;4.470;2022-11-27T03:11:46;7.00;;;2.47;;
56381;SDS011;50261;51.150;4.470;2022-11-27T03:14:12;6.63;;;2.72;;
56381;SDS011;50261;51.150;4.470;2022-11-27T03:19:25;13.68;;;3.08;;
56381;SDS011;50261;51.150;4.470;2022-11-27T03:22:00;4.85;;;2.40;;
56381;SDS011;50261;51.150;4.470;2022-11-27T03:24:26;7.55;;;2.10;;
56381;SDS011;50261;51.150;4.470;2022-11-27T03:26:52;7.53;;;2.17;;
56381;SDS011;50261;51.150;4.470;2022-11-27T03:29:20;6.65;;;2.28;;
56381;SDS011;50261;51.150;4.470;2022-11-27T03:31:48;7.32;;;1.90;;
56381;SDS011;50261;51.150;4.470;2022-11-27T03:34:14;6.68;;;2.40;;
56381;SDS011;50261;51.150;4.470;2022-11-27T03:36:40;6.18;;;2.45;;
56381;SDS011;50261;51.150;4.470;2022-11-27T03:39:06;7.13;;;2.15;;
56381;SDS011;50261;51.150;4.470;2022-11-27T03:41:47;5.22;;;2.25;;
56381;SDS011;50261;51.150;4.470;2022-11-27T03:44:22;5.70;;;2.30;;
56381;SDS011;50261;51.150;4.470;2022-11-27T03:49:39;4.72;;;1.75;;
56381;SDS011;50261;51.150;4.470;2022-11-27T03:52:26;8.88;;;2.15;;
56381;SDS011;50261;51.150;4.470;2022-11-27T03:55:00;9.25;;;2.25;;
56381;SDS011;50261;51.150;4.470;2022-11-27T03:57:32;5.82;;;2.20;;
56381;SDS011;50261;51.150;4.470;2022-11-27T04:00:01;8.45;;;2.38;;
56381;SDS011;50261;51.150;4.470;2022-11-27T04:02:38;7.30;;;2.13;;
56381;SDS011;50261;51.150;4.470;2022-11-27T04:07:30;5.22;;;2.08;;
56381;SDS011;50261;51.150;4.470;2022-11-27T04:09:55;7.88;;;2.30;;
56381;SDS011;50261;51.150;4.470;2022-11-27T04:12:21;6.50;;;2.35;;
56381;SDS011;50261;51.150;4.470;2022-11-27T04:14:47;4.68;;;1.90;;
56381;SDS011;50261;51.150;4.470;2022-11-27T04:17:12;6.28;;;2.28;;
56381;SDS011;50261;51.150;4.470;2022-11-27T04:19:38;7.50;;;2.40;;
56381;SDS011;50261;51.150;4.470;2022-11-27T04:22:04;6.15;;;2.22;;
56381;SDS011;50261;51.150;4.470;2022-11-27T04:24:29;5.10;;;2.13;;
56381;SDS011;50261;51.150;4.470;2022-11-27T04:26:55;8.57;;;2.20;;
56381;SDS011;50261;51.150;4.470;2022-11-27T04:29:21;5.45;;;2.03;;
56381;SDS011;50261;51.150;4.470;2022-11-27T04:31:46;9.27;;;2.38;;
56381;SDS011;50261;51.150;4.470;2022-11-27T04:34:12;4.95;;;2.30;;
56381;SDS011;50261;51.150;4.470;2022-11-27T04:36:38;5.68;;;2.40;;
56381;SDS011;50261;51.150;4.470;2022-11-27T04:39:03;5.82;;;2.20;;
56381;SDS011;50261;51.150;4.470;2022-11-27T04:41:29;4.53;;;2.05;;
56381;SDS011;50261;51.150;4.470;2022-11-27T04:43:55;6.43;;;2.40;;
56381;SDS011;50261;51.150;4.470;2022-11-27T04:46:20;9.05;;;2.90;;
56381;SDS011;50261;51.150;4.470;2022-11-27T04:48:46;6.90;;;2.25;;
56381;SDS011;50261;51.150;4.470;2022-11-27T04:51:12;8.10;;;2.50;;
56381;SDS011;50261;51.150;4.470;2022-11-27T04:53:37;6.85;;;2.40;;
56381;SDS011;50261;51.150;4.470;2022-11-27T04:56:03;6.55;;;2.45;;
56381;SDS011;50261;51.150;4.470;2022-11-27T04:58:29;6.70;;;2.65;;
56381;SDS011;50261;51.150;4.470;2022-11-27T05:00:54;8.98;;;2.42;;
56381;SDS011;50261;51.150;4.470;2022-11-27T05:03:20;5.80;;;2.50;;
56381;SDS011;50261;51.150;4.470;2022-11-27T05:05:52;5.80;;;2.47;;
56381;SDS011;50261;51.150;4.470;2022-11-27T05:08:18;7.68;;;2.80;;
56381;SDS011;50261;51.150;4.470;2022-11-27T05:10:44;6.18;;;2.67;;
56381;SDS011;50261;51.150;4.470;2022-11-27T05:13:11;6.50;;;2.50;;
56381;SDS011;50261;51.150;4.470;2022-11-27T05:15:36;7.32;;;2.47;;
56381;SDS011;50261;51.150;4.470;2022-11-27T05:18:02;5.28;;;2.60;;
56381;SDS011;50261;51.150;4.470;2022-11-27T05:20:28;7.68;;;2.83;;
56381;SDS011;50261;51.150;4.470;2022-11-27T05:22:54;10.45;;;2.70;;
56381;SDS011;50261;51.150;4.470;2022-11-27T05:25:20;5.68;;;2.78;;
56381;SDS011;50261;51.150;4.470;2022-11-27T05:27:45;8.07;;;3.10;;
56381;SDS011;50261;51.150;4.470;2022-11-27T05:30:11;7.97;;;2.88;;
56381;SDS011;50261;51.150;4.470;2022-11-27T05:32:37;9.65;;;2.88;;
56381;SDS011;50261;51.150;4.470;2022-11-27T05:35:02;9.43;;;3.20;;
56381;SDS011;50261;51.150;4.470;2022-11-27T05:37:28;6.80;;;3.03;;
56381;SDS011;50261;51.150;4.470;2022-11-27T05:39:54;8.55;;;3.42;;
56381;SDS011;50261;51.150;4.470;2022-11-27T05:42:20;6.40;;;2.95;;
56381;SDS011;50261;51.150;4.470;2022-11-27T05:44:45;8.55;;;3.42;;
56381;SDS011;50261;51.150;4.470;2022-11-27T05:47:11;6.43;;;2.60;;
56381;SDS011;50261;51.150;4.470;2022-11-27T05:49:37;9.30;;;3.10;;
56381;SDS011;50261;51.150;4.470;2022-11-27T05:52:03;11.32;;;3.20;;
56381;SDS011;50261;51.150;4.470;2022-11-27T05:54:29;5.82;;;2.92;;
56381;SDS011;50261;51.150;4.470;2022-11-27T05:56:54;12.98;;;3.22;;
56381;SDS011;50261;51.150;4.470;2022-11-27T05:59:20;8.82;;;3.38;;
56381;SDS011;50261;51.150;4.470;2022-11-27T06:01:46;9.35;;;3.65;;
56381;SDS011;50261;51.150;4.470;2022-11-27T06:04:13;8.77;;;2.85;;
56381;SDS011;50261;51.150;4.470;2022-11-27T06:06:39;9.52;;;3.30;;
56381;SDS011;50261;51.150;4.470;2022-11-27T06:09:04;6.97;;;3.28;;
56381;SDS011;50261;51.150;4.470;2022-11-27T06:11:30;8.73;;;3.80;;
56381;SDS011;50261;51.150;4.470;2022-11-27T06:13:56;7.95;;;3.10;;
56381;SDS011;50261;51.150;4.470;2022-11-27T06:16:22;7.93;;;3.17;;
56381;SDS011;50261;51.150;4.470;2022-11-27T06:18:49;11.68;;;3.70;;
56381;SDS011;50261;51.150;4.470;2022-11-27T06:21:15;8.10;;;3.55;;
56381;SDS011;50261;51.150;4.470;2022-11-27T06:23:41;6.68;;;3.50;;
56381;SDS011;50261;51.150;4.470;2022-11-27T06:26:15;8.98;;;3.70;;
56381;SDS011;50261;51.150;4.470;2022-11-27T06:28:41;8.77;;;3.92;;
56381;SDS011;50261;51.150;4.470;2022-11-27T06:31:08;8.55;;;4.15;;
56381;SDS011;50261;51.150;4.470;2022-11-27T06:33:34;7.85;;;3.22;;
56381;SDS011;50261;51.150;4.470;2022-11-27T06:36:00;8.68;;;3.78;;
56381;SDS011;50261;51.150;4.470;2022-11-27T06:38:25;10.30;;;3.53;;
56381;SDS011;50261;51.150;4.470;2022-11-27T06:40:51;8.50;;;3.58;;
56381;SDS011;50261;51.150;4.470;2022-11-27T06:43:17;8.70;;;3.67;;
56381;SDS011;50261;51.150;4.470;2022-11-27T06:45:42;10.18;;;3.88;;
56381;SDS011;50261;51.150;4.470;2022-11-27T06:48:08;11.05;;;4.00;;
56381;SDS011;50261;51.150;4.470;2022-11-27T06:50:34;10.30;;;3.92;;
56381;SDS011;50261;51.150;4.470;2022-11-27T06:52:59;9.43;;;4.35;;
56381;SDS011;50261;51.150;4.470;2022-11-27T06:55:25;9.77;;;4.18;;
56381;SDS011;50261;51.150;4.470;2022-11-27T06:57:51;12.10;;;5.30;;
56381;SDS011;50261;51.150;4.470;2022-11-27T07:00:17;11.93;;;5.72;;
56381;SDS011;50261;51.150;4.470;2022-11-27T07:02:43;12.55;;;5.63;;
56381;SDS011;50261;51.150;4.470;2022-11-27T07:05:09;11.32;;;4.82;;
56381;SDS011;50261;51.150;4.470;2022-11-27T07:07:34;12.02;;;4.93;;
56381;SDS011;50261;51.150;4.470;2022-11-27T07:10:00;12.35;;;4.38;;
56381;SDS011;50261;51.150;4.470;2022-11-27T07:12:26;10.60;;;4.10;;
56381;SDS011;50261;51.150;4.470;2022-11-27T07:14:51;8.10;;;4.13;;
56381;SDS011;50261;51.150;4.470;2022-11-27T07:17:17;14.07;;;4.82;;
56381;SDS011;50261;51.150;4.470;2022-11-27T07:19:42;9.13;;;3.97;;
56381;SDS011;50261;51.150;4.470;2022-11-27T07:22:08;10.23;;;3.47;;
56381;SDS011;50261;51.150;4.470;2022-11-27T07:24:34;6.47;;;3.80;;
56381;SDS011;50261;51.150;4.470;2022-11-27T07:27:00;8.85;;;4.05;;
56381;SDS011;50261;51.150;4.470;2022-11-27T07:29:25;9.07;;;4.00;;
56381;SDS011;50261;51.150;4.470;2022-11-27T07:31:51;7.95;;;4.05;;
56381;SDS011;50261;51.150;4.470;2022-11-27T07:34:17;9.98;;;4.57;;
56381;SDS011;50261;51.150;4.470;2022-11-27T07:36:43;8.65;;;3.78;;
56381;SDS011;50261;51.150;4.470;2022-11-27T07:39:08;11.02;;;3.85;;
56381;SDS011;50261;51.150;4.470;2022-11-27T07:41:34;8.00;;;3.90;;
56381;SDS011;50261;51.150;4.470;2022-11-27T07:44:00;12.52;;;4.28;;
56381;SDS011;50261;51.150;4.470;2022-11-27T07:46:25;6.85;;;4.03;;
56381;SDS011;50261;51.150;4.470;2022-11-27T07:48:51;9.63;;;4.22;;
56381;SDS011;50261;51.150;4.470;2022-11-27T07:51:18;12.32;;;4.20;;
56381;SDS011;50261;51.150;4.470;2022-11-27T07:53:44;9.52;;;4.53;;
56381;SDS011;50261;51.150;4.470;2022-11-27T07:56:10;9.95;;;4.68;;
56381;SDS011;50261;51.150;4.470;2022-11-27T07:58:36;10.65;;;3.95;;
56381;SDS011;50261;51.150;4.470;2022-11-27T08:01:05;10.65;;;4.63;;
56381;SDS011;50261;51.150;4.470;2022-11-27T08:03:32;16.65;;;5.88;;
56381;SDS011;50261;51.150;4.470;2022-11-27T08:05:58;14.35;;;6.05;;
56381;SDS011;50261;51.150;4.470;2022-11-27T08:08:23;14.50;;;5.22;;
56381;SDS011;50261;51.150;4.470;2022-11-27T08:10:49;9.38;;;4.57;;
56381;SDS011;50261;51.150;4.470;2022-11-27T08:13:15;11.55;;;4.75;;
56381;SDS011;50261;51.150;4.470;2022-11-27T08:15:40;8.80;;;4.40;;
56381;SDS011;50261;51.150;4.470;2022-11-27T08:18:06;11.20;;;4.63;;
56381;SDS011;50261;51.150;4.470;2022-11-27T08:20:32;10.13;;;4.72;;
56381;SDS011;50261;51.150;4.470;2022-11-27T08:22:57;10.95;;;4.75;;
56381;SDS011;50261;51.150;4.470;2022-11-27T08:25:23;8.43;;;4.25;;
56381;SDS011;50261;51.150;4.470;2022-11-27T08:27:49;9.20;;;4.43;;
56381;SDS011;50261;51.150;4.470;2022-11-27T08:30:14;9.88;;;4.43;;
56381;SDS011;50261;51.150;4.470;2022-11-27T08:32:40;9.23;;;4.30;;
56381;SDS011;50261;51.150;4.470;2022-11-27T08:35:07;11.23;;;4.82;;
56381;SDS011;50261;51.150;4.470;2022-11-27T08:37:32;9.85;;;4.85;;
56381;SDS011;50261;51.150;4.470;2022-11-27T08:39:58;10.75;;;4.32;;
56381;SDS011;50261;51.150;4.470;2022-11-27T08:42:23;10.13;;;4.10;;
56381;SDS011;50261;51.150;4.470;2022-11-27T08:44:49;7.40;;;3.60;;
56381;SDS011;50261;51.150;4.470;2022-11-27T08:47:15;10.38;;;4.43;;
56381;SDS011;50261;51.150;4.470;2022-11-27T08:49:41;8.45;;;4.25;;
56381;SDS011;50261;51.150;4.470;2022-11-27T08:52:07;9.40;;;4.22;;
56381;SDS011;50261;51.150;4.470;2022-11-27T08:54:33;14.45;;;4.68;;
56381;SDS011;50261;51.150;4.470;2022-11-27T08:56:58;13.27;;;4.53;;
56381;SDS011;50261;51.150;4.470;2022-11-27T08:59:24;11.15;;;4.00;;
56381;SDS011;50261;51.150;4.470;2022-11-27T09:01:49;12.63;;;4.20;;
56381;SDS011;50261;51.150;4.470;2022-11-27T09:04:15;7.68;;;4.20;;
56381;SDS011;50261;51.150;4.470;2022-11-27T09:06:40;9.55;;;3.80;;
56381;SDS011;50261;51.150;4.470;2022-11-27T09:09:06;8.43;;;4.32;;
56381;SDS011;50261;51.150;4.470;2022-11-27T09:11:32;10.18;;;3.90;;
56381;SDS011;50261;51.150;4.470;2022-11-27T09:13:59;11.20;;;4.35;;
56381;SDS011;50261;51.150;4.470;2022-11-27T09:16:25;9.07;;;4.47;;
56381;SDS011;50261;51.150;4.470;2022-11-27T09:18:51;11.60;;;4.63;;
56381;SDS011;50261;51.150;4.470;2022-11-27T09:21:17;11.02;;;4.55;;
56381;SDS011;50261;51.150;4.470;2022-11-27T09:23:44;13.48;;;4.53;;
56381;SDS011;50261;51.150;4.470;2022-11-27T09:26:10;8.57;;;4.40;;
56381;SDS011;50261;51.150;4.470;2022-11-27T09:28:36;8.40;;;4.18;;
56381;SDS011;50261;51.150;4.470;2022-11-27T09:31:03;10.68;;;4.30;;
56381;SDS011;50261;51.150;4.470;2022-11-27T09:33:31;10.80;;;5.22;;
56381;SDS011;50261;51.150;4.470;2022-11-27T09:35:57;12.65;;;4.97;;
56381;SDS011;50261;51.150;4.470;2022-11-27T09:38:23;9.30;;;4.70;;
56381;SDS011;50261;51.150;4.470;2022-11-27T09:40:49;6.65;;;4.28;;
56381;SDS011;50261;51.150;4.470;2022-11-27T09:43:16;10.90;;;3.92;;
56381;SDS011;50261;51.150;4.470;2022-11-27T09:45:53;10.57;;;4.25;;
56381;SDS011;50261;51.150;4.470;2022-11-27T09:48:21;11.32;;;4.13;;
56381;SDS011;50261;51.150;4.470;2022-11-27T09:50:50;9.05;;;3.88;;
56381;SDS011;50261;51.150;4.470;2022-11-27T09:55:45;9.65;;;4.43;;
56381;SDS011;50261;51.150;4.470;2022-11-27T09:58:14;9.65;;;4.47;;
56381;SDS011;50261;51.150;4.470;2022-11-27T10:00:42;9.68;;;4.45;;
56381;SDS011;50261;51.150;4.470;2022-11-27T10:03:14;8.05;;;3.90;;
56381;SDS011;50261;51.150;4.470;2022-11-27T10:05:48;10.35;;;4.63;;
56381;SDS011;50261;51.150;4.470;2022-11-27T10:13:21;8.93;;;3.83;;
56381;SDS011;50261;51.150;4.470;2022-11-27T10:18:22;6.57;;;4.00;;
56381;SDS011;50261;51.150;4.470;2022-11-27T10:20:51;9.70;;;4.45;;
56381;SDS011;50261;51.150;4.470;2022-11-27T10:23:24;7.75;;;4.10;;
56381;SDS011;50261;51.150;4.470;2022-11-27T10:25:53;7.53;;;3.75;;
56381;SDS011;50261;51.150;4.470;2022-11-27T10:30:51;8.45;;;3.97;;
56381;SDS011;50261;51.150;4.470;2022-11-27T10:33:22;8.35;;;4.88;;
56381;SDS011;50261;51.150;4.470;2022-11-27T10:35:48;10.88;;;4.72;;
56381;SDS011;50261;51.150;4.470;2022-11-27T10:38:21;7.00;;;3.75;;
56381;SDS011;50261;51.150;4.470;2022-11-27T10:41:23;7.38;;;3.70;;
56381;SDS011;50261;51.150;4.470;2022-11-27T10:43:40;8.82;;;5.13;;
56381;SDS011;50261;51.150;4.470;2022-11-27T10:48:50;6.75;;;3.88;;
56381;SDS011;50261;51.150;4.470;2022-11-27T10:51:17;8.65;;;4.53;;
56381;SDS011;50261;51.150;4.470;2022-11-27T10:53:43;8.13;;;4.20;;
56381;SDS011;50261;51.150;4.470;2022-11-27T11:01:12;8.73;;;4.43;;
56381;SDS011;50261;51.150;4.470;2022-11-27T11:03:38;9.45;;;4.63;;
56381;SDS011;50261;51.150;4.470;2022-11-27T11:06:05;12.38;;;4.90;;
56381;SDS011;50261;51.150;4.470;2022-11-27T11:08:33;9.90;;;4.85;;
56381;SDS011;50261;51.150;4.470;2022-11-27T11:11:00;8.63;;;4.45;;
56381;SDS011;50261;51.150;4.470;2022-11-27T11:13:29;7.10;;;3.97;;
56381;SDS011;50261;51.150;4.470;2022-11-27T11:15:59;8.40;;;4.30;;
56381;SDS011;50261;51.150;4.470;2022-11-27T11:18:30;9.18;;;4.40;;
56381;SDS011;50261;51.150;4.470;2022-11-27T11:21:03;10.85;;;4.30;;
56381;SDS011;50261;51.150;4.470;2022-11-27T11:23:32;9.05;;;4.53;;
56381;SDS011;50261;51.150;4.470;2022-11-27T11:26:00;9.77;;;4.43;;
56381;SDS011;50261;51.150;4.470;2022-11-27T11:28:27;9.25;;;4.45;;
56381;SDS011;50261;51.150;4.470;2022-11-27T11:30:58;10.90;;;4.38;;
56381;SDS011;50261;51.150;4.470;2022-11-27T11:33:24;10.52;;;4.55;;
56381;SDS011;50261;51.150;4.470;2022-11-27T11:35:52;9.35;;;4.30;;
56381;SDS011;50261;51.150;4.470;2022-11-27T11:38:18;10.10;;;4.53;;
56381;SDS011;50261;51.150;4.470;2022-11-27T11:40:55;8.13;;;4.38;;
56381;SDS011;50261;51.150;4.470;2022-11-27T11:43:29;7.10;;;4.35;;
56381;SDS011;50261;51.150;4.470;2022-11-27T11:46:02;8.13;;;4.65;;
56381;SDS011;50261;51.150;4.470;2022-11-27T11:48:28;8.65;;;4.65;;
56381;SDS011;50261;51.150;4.470;2022-11-27T11:51:03;8.88;;;4.40;;
56381;SDS011;50261;51.150;4.470;2022-11-27T12:01:13;10.10;;;4.65;;
56381;SDS011;50261;51.150;4.470;2022-11-27T12:04:27;6.93;;;4.68;;
56381;SDS011;50261;51.150;4.470;2022-11-27T12:06:36;7.80;;;4.53;;
56381;SDS011;50261;51.150;4.470;2022-11-27T12:14:17;9.45;;;5.82;;
56381;SDS011;50261;51.150;4.470;2022-11-27T12:27:16;5.88;;;4.38;;
56381;SDS011;50261;51.150;4.470;2022-11-27T12:30:05;7.85;;;4.55;;
56381;SDS011;50261;51.150;4.470;2022-11-27T12:37:55;8.55;;;4.43;;
56381;SDS011;50261;51.150;4.470;2022-11-27T12:43:15;10.20;;;4.43;;
56381;SDS011;50261;51.150;4.470;2022-11-27T12:45:46;12.05;;;4.40;;
56381;SDS011;50261;51.150;4.470;2022-11-27T12:53:09;10.65;;;5.18;;
56381;SDS011;50261;51.150;4.470;2022-11-27T12:55:39;10.40;;;5.70;;
56381;SDS011;50261;51.150;4.470;2022-11-27T12:58:09;12.18;;;5.15;;
56381;SDS011;50261;51.150;4.470;2022-11-27T13:00:38;8.07;;;4.80;;
56381;SDS011;50261;51.150;4.470;2022-11-27T13:03:17;10.95;;;4.90;;
56381;SDS011;50261;51.150;4.470;2022-11-27T13:08:19;11.02;;;6.95;;
56381;SDS011;50261;51.150;4.470;2022-11-27T13:10:48;9.35;;;5.28;;
56381;SDS011;50261;51.150;4.470;2022-11-27T13:13:21;10.20;;;5.72;;
56381;SDS011;50261;51.150;4.470;2022-11-27T13:15:49;9.93;;;5.50;;
56381;SDS011;50261;51.150;4.470;2022-11-27T13:20:48;10.90;;;5.88;;
56381;SDS011;50261;51.150;4.470;2022-11-27T13:23:15;9.20;;;5.20;;
56381;SDS011;50261;51.150;4.470;2022-11-27T13:25:42;11.82;;;5.80;;
56381;SDS011;50261;51.150;4.470;2022-11-27T13:28:18;11.18;;;5.30;;
56381;SDS011;50261;51.150;4.470;2022-11-27T13:30:45;12.05;;;5.15;;
56381;SDS011;50261;51.150;4.470;2022-11-27T13:33:17;10.75;;;5.65;;
56381;SDS011;50261;51.150;4.470;2022-11-27T13:35:48;13.05;;;5.80;;
56381;SDS011;50261;51.150;4.470;2022-11-27T13:38:21;10.02;;;5.70;;
56381;SDS011;50261;51.150;4.470;2022-11-27T13:40:48;9.60;;;5.22;;
56381;SDS011;50261;51.150;4.470;2022-11-27T13:46:02;8.50;;;4.20;;
56381;SDS011;50261;51.150;4.470;2022-11-27T13:48:30;10.93;;;5.32;;
56381;SDS011;50261;51.150;4.470;2022-11-27T13:50:57;9.00;;;5.20;;
56381;SDS011;50261;51.150;4.470;2022-11-27T13:53:34;8.27;;;5.82;;
56381;SDS011;50261;51.150;4.470;2022-11-27T13:56:00;10.30;;;5.85;;
56381;SDS011;50261;51.150;4.470;2022-11-27T13:58:26;9.80;;;5.70;;
56381;SDS011;50261;51.150;4.470;2022-11-27T14:00:52;10.18;;;5.53;;
56381;SDS011;50261;51.150;4.470;2022-11-27T14:03:25;7.88;;;5.47;;
56381;SDS011;50261;51.150;4.470;2022-11-27T14:05:51;8.10;;;5.25;;
56381;SDS011;50261;51.150;4.470;2022-11-27T14:08:20;11.55;;;4.97;;
56381;SDS011;50261;51.150;4.470;2022-11-27T14:10:48;11.05;;;5.68;;
56381;SDS011;50261;51.150;4.470;2022-11-27T14:13:15;12.20;;;5.53;;
56381;SDS011;50261;51.150;4.470;2022-11-27T14:15:42;11.35;;;6.00;;
56381;SDS011;50261;51.150;4.470;2022-11-27T14:18:15;13.52;;;6.43;;
56381;SDS011;50261;51.150;4.470;2022-11-27T14:20:45;10.45;;;4.93;;
56381;SDS011;50261;51.150;4.470;2022-11-27T14:23:12;9.77;;;5.03;;
56381;SDS011;50261;51.150;4.470;2022-11-27T14:25:37;8.82;;;5.20;;
56381;SDS011;50261;51.150;4.470;2022-11-27T14:28:18;8.40;;;5.05;;
56381;SDS011;50261;51.150;4.470;2022-11-27T14:30:55;12.90;;;6.22;;
56381;SDS011;50261;51.150;4.470;2022-11-27T14:33:22;10.63;;;5.50;;
56381;SDS011;50261;51.150;4.470;2022-11-27T14:35:49;10.82;;;5.20;;
56381;SDS011;50261;51.150;4.470;2022-11-27T14:38:15;7.97;;;5.03;;
56381;SDS011;50261;51.150;4.470;2022-11-27T14:40:40;8.98;;;5.90;;
56381;SDS011;50261;51.150;4.470;2022-11-27T14:43:07;11.32;;;6.45;;
56381;SDS011;50261;51.150;4.470;2022-11-27T14:45:33;11.07;;;6.55;;
56381;SDS011;50261;51.150;4.470;2022-11-27T14:47:59;11.10;;;7.22;;
56381;SDS011;50261;51.150;4.470;2022-11-27T14:50:24;13.45;;;6.05;;
56381;SDS011;50261;51.150;4.470;2022-11-27T14:52:54;8.82;;;5.22;;
56381;SDS011;50261;51.150;4.470;2022-11-27T14:55:20;8.40;;;5.78;;
56381;SDS011;50261;51.150;4.470;2022-11-27T14:57:47;11.38;;;6.80;;
56381;SDS011;50261;51.150;4.470;2022-11-27T15:00:14;12.98;;;6.60;;
56381;SDS011;50261;51.150;4.470;2022-11-27T15:02:40;11.27;;;5.72;;
56381;SDS011;50261;51.150;4.470;2022-11-27T15:05:06;11.05;;;5.57;;
56381;SDS011;50261;51.150;4.470;2022-11-27T15:07:33;11.02;;;6.25;;
56381;SDS011;50261;51.150;4.470;2022-11-27T15:10:01;9.63;;;6.53;;
56381;SDS011;50261;51.150;4.470;2022-11-27T15:12:28;11.90;;;6.10;;
56381;SDS011;50261;51.150;4.470;2022-11-27T15:14:56;11.77;;;6.15;;
56381;SDS011;50261;51.150;4.470;2022-11-27T15:17:24;10.98;;;6.53;;
56381;SDS011;50261;51.150;4.470;2022-11-27T15:19:50;9.45;;;5.57;;
56381;SDS011;50261;51.150;4.470;2022-11-27T15:22:16;11.30;;;5.88;;
56381;SDS011;50261;51.150;4.470;2022-11-27T15:24:43;9.38;;;5.50;;
56381;SDS011;50261;51.150;4.470;2022-11-27T15:27:16;7.90;;;5.30;;
56381;SDS011;50261;51.150;4.470;2022-11-27T15:32:21;7.82;;;5.55;;
56381;SDS011;50261;51.150;4.470;2022-11-27T15:34:48;10.27;;;5.80;;
56381;SDS011;50261;51.150;4.470;2022-11-27T15:37:21;11.85;;;5.63;;
56381;SDS011;50261;51.150;4.470;2022-11-27T15:39:48;9.50;;;5.88;;
56381;SDS011;50261;51.150;4.470;2022-11-27T15:42:16;11.88;;;5.95;;
56381;SDS011;50261;51.150;4.470;2022-11-27T15:44:43;12.00;;;5.78;;
56381;SDS011;50261;51.150;4.470;2022-11-27T15:47:22;9.55;;;5.90;;
56381;SDS011;50261;51.150;4.470;2022-11-27T15:49:48;10.05;;;6.25;;
56381;SDS011;50261;51.150;4.470;2022-11-27T15:52:13;10.52;;;5.95;;
56381;SDS011;50261;51.150;4.470;2022-11-27T15:54:39;9.00;;;5.75;;
56381;SDS011;50261;51.150;4.470;2022-11-27T15:57:04;10.35;;;5.82;;
56381;SDS011;50261;51.150;4.470;2022-11-27T15:59:30;15.57;;;9.10;;
56381;SDS011;50261;51.150;4.470;2022-11-27T16:01:56;13.35;;;7.43;;
56381;SDS011;50261;51.150;4.470;2022-11-27T16:04:22;11.70;;;5.78;;
56381;SDS011;50261;51.150;4.470;2022-11-27T16:06:48;8.90;;;5.90;;
56381;SDS011;50261;51.150;4.470;2022-11-27T16:09:14;10.43;;;6.35;;
56381;SDS011;50261;51.150;4.470;2022-11-27T16:11:40;9.70;;;5.60;;
56381;SDS011;50261;51.150;4.470;2022-11-27T16:14:05;9.77;;;6.35;;